createdAt,value
2023-04-30T00:04:42.124Z,9.25
2023-04-30T00:09:45.004Z,9.13
2023-04-30T00:14:47.907Z,10.07
2023-04-30T00:19:50.916Z,9.48
2023-04-30T00:24:53.677Z,10.50
2023-04-30T00:29:56.589Z,10.80
2023-04-30T00:35:01.355Z,10.77
2023-04-30T00:40:06.152Z,9.88
2023-04-30T00:45:09.273Z,10.88
2023-04-30T00:50:15.953Z,10.52
2023-04-30T00:55:20.157Z,10.60
2023-04-30T01:00:23.300Z,10.60
2023-04-30T01:05:26.390Z,11.07
2023-04-30T01:10:36.447Z,10.30
2023-04-30T01:16:03.260Z,10.50
2023-04-30T01:21:06.770Z,10.43
2023-04-30T01:26:09.783Z,10.13
2023-04-30T01:31:19.447Z,10.32
2023-04-30T01:36:43.420Z,9.45
2023-04-30T01:41:51.003Z,9.45
2023-04-30T01:47:14.693Z,9.63
2023-04-30T01:52:23.238Z,9.57
2023-04-30T01:57:32.372Z,8.95
2023-04-30T02:02:35.260Z,9.73
2023-04-30T02:07:41.885Z,9.73
2023-04-30T02:12:44.741Z,10.85
2023-04-30T02:17:47.622Z,10.63
2023-04-30T02:22:51.536Z,8.98
2023-04-30T02:27:54.210Z,8.52
2023-04-30T02:32:57.149Z,8.93
2023-04-30T02:37:59.868Z,8.30
2023-04-30T02:43:02.545Z,8.30
2023-04-30T02:48:05.973Z,7.85
2023-04-30T02:53:08.891Z,8.25
2023-04-30T02:58:11.596Z,8.25
2023-04-30T03:03:14.632Z,8.30
2023-04-30T03:08:17.321Z,8.68
2023-04-30T03:13:20.052Z,8.75
2023-04-30T03:18:22.861Z,8.88
2023-04-30T03:23:28.502Z,8.90
2023-04-30T03:28:31.364Z,10.52
2023-04-30T03:33:34.703Z,10.90
2023-04-30T03:38:37.423Z,10.50
2023-04-30T03:43:40.137Z,8.98
2023-04-30T03:48:43.405Z,9.73
2023-04-30T03:53:46.871Z,10.77
2023-04-30T03:58:49.731Z,10.15
2023-04-30T04:03:52.733Z,9.63
2023-04-30T04:08:55.480Z,10.13
2023-04-30T04:13:58.792Z,11.60
2023-04-30T04:19:01.472Z,10.98
2023-04-30T04:24:08.570Z,9.95
2023-04-30T04:29:12.357Z,10.82
2023-04-30T04:34:16.660Z,11.50
2023-04-30T04:39:19.377Z,11.00
2023-04-30T04:44:22.965Z,11.30
2023-04-30T04:49:25.787Z,10.82
2023-04-30T04:54:29.712Z,11.82
2023-04-30T04:59:32.500Z,11.02
2023-04-30T05:04:35.162Z,11.88
2023-04-30T05:09:38.129Z,11.77
2023-04-30T05:14:40.933Z,12.90
2023-04-30T05:19:43.814Z,11.50
2023-04-30T05:24:46.818Z,11.07
2023-04-30T05:29:49.483Z,11.25
2023-04-30T05:34:52.485Z,11.38
2023-04-30T05:39:55.337Z,11.05
2023-04-30T05:44:58.375Z,9.45
2023-04-30T05:50:01.037Z,9.95
2023-04-30T05:55:04.787Z,8.25
2023-04-30T06:00:08.099Z,7.15
2023-04-30T06:05:16.690Z,5.95
2023-04-30T06:10:19.484Z,7.03
2023-04-30T06:15:22.677Z,5.35
2023-04-30T06:20:27.320Z,6.07
2023-04-30T06:25:30.013Z,6.25
2023-04-30T06:30:32.778Z,4.20
2023-04-30T06:35:35.589Z,4.43
2023-04-30T06:40:38.506Z,3.70
2023-04-30T06:45:41.160Z,4.00
2023-04-30T06:50:46.532Z,3.20
2023-04-30T06:55:49.496Z,3.28
2023-04-30T07:00:52.467Z,2.90
2023-04-30T07:05:55.416Z,2.88
2023-04-30T07:10:58.582Z,4.68
2023-04-30T07:16:02.757Z,2.83
2023-04-30T07:21:05.424Z,2.70
2023-04-30T07:26:08.056Z,3.10
2023-04-30T07:31:10.755Z,3.10
2023-04-30T07:36:13.604Z,3.03
2023-04-30T07:41:16.244Z,2.60
2023-04-30T07:46:19.136Z,2.58
2023-04-30T07:51:21.900Z,2.65
2023-04-30T07:56:24.733Z,2.92
2023-04-30T08:01:27.445Z,3.55
2023-04-30T08:06:30.239Z,2.40
2023-04-30T08:11:33.054Z,3.45
2023-04-30T08:16:35.849Z,2.70
2023-04-30T08:21:39.153Z,3.20
2023-04-30T08:26:41.909Z,2.95
2023-04-30T08:31:44.677Z,2.65
2023-04-30T08:36:47.426Z,2.47
2023-04-30T08:41:56.186Z,2.05
2023-04-30T08:47:00.216Z,1.80
2023-04-30T08:52:02.876Z,1.58
2023-04-30T08:57:06.549Z,2.10
2023-04-30T09:02:10.621Z,2.75
2023-04-30T09:07:14.621Z,1.90
2023-04-30T09:12:19.769Z,2.58
2023-04-30T09:17:23.259Z,1.92
2023-04-30T09:22:26.131Z,1.55
2023-04-30T09:27:28.805Z,2.30
2023-04-30T09:32:31.822Z,1.92
2023-04-30T09:37:38.897Z,1.50
2023-04-30T09:42:58.989Z,1.70
2023-04-30T09:48:16.297Z,1.33
2023-04-30T09:53:20.857Z,2.05
2023-04-30T09:58:25.918Z,1.77
2023-04-30T10:03:31.227Z,2.72
2023-04-30T10:08:47.782Z,1.95
2023-04-30T10:14:03.203Z,2.13
2023-04-30T10:19:32.147Z,2.60
2023-04-30T10:24:35.115Z,2.50
2023-04-30T10:29:37.761Z,2.30
2023-04-30T10:35:00.130Z,2.38
2023-04-30T10:40:05.294Z,2.47
2023-04-30T10:45:11.231Z,2.60
2023-04-30T10:50:14.238Z,3.10
2023-04-30T10:55:17.770Z,2.20
2023-04-30T11:00:25.504Z,2.50
2023-04-30T11:05:39.076Z,1.45
2023-04-30T11:10:59.004Z,1.60
2023-04-30T11:16:04.695Z,1.80
2023-04-30T11:21:09.122Z,1.50
2023-04-30T11:26:11.980Z,1.60
2023-04-30T11:31:15.755Z,1.63
2023-04-30T11:36:19.905Z,2.33
2023-04-30T11:41:23.471Z,1.40
2023-04-30T11:46:27.685Z,1.70
2023-04-30T11:51:30.853Z,2.20
2023-04-30T11:56:39.514Z,1.30
2023-04-30T12:01:44.257Z,1.40
2023-04-30T12:06:47.114Z,1.55
2023-04-30T12:11:49.916Z,1.70
2023-04-30T12:16:53.248Z,1.50
2023-04-30T12:21:57.566Z,1.45
2023-04-30T12:27:02.029Z,1.77
2023-04-30T12:32:06.167Z,7.85
2023-04-30T12:37:08.825Z,14.30
2023-04-30T12:42:11.592Z,13.88
2023-04-30T12:47:14.773Z,3.53
2023-04-30T12:52:17.398Z,1.90
2023-04-30T12:57:20.128Z,2.17
2023-04-30T13:02:28.237Z,2.20
2023-04-30T13:07:40.050Z,2.03
2023-04-30T13:12:42.730Z,2.42
2023-04-30T13:17:45.834Z,2.42
2023-04-30T13:22:48.469Z,2.25
2023-04-30T13:27:51.139Z,3.72
2023-04-30T13:32:54.457Z,2.55
2023-04-30T13:38:00.007Z,2.67
2023-04-30T13:43:04.343Z,2.05
2023-04-30T13:48:07.218Z,2.40
2023-04-30T13:53:09.875Z,2.90
2023-04-30T13:58:13.406Z,2.50
2023-04-30T14:03:16.577Z,2.20
2023-04-30T14:08:21.886Z,2.90
2023-04-30T14:13:25.914Z,1.80
2023-04-30T14:18:28.586Z,2.88
2023-04-30T14:23:31.286Z,1.80
2023-04-30T14:28:34.030Z,2.00
2023-04-30T14:33:36.978Z,2.58
2023-04-30T14:38:39.570Z,2.58
2023-04-30T14:43:42.456Z,2.13
2023-04-30T14:48:45.389Z,2.70
2023-04-30T14:53:47.973Z,2.90
2023-04-30T14:58:50.769Z,2.83
2023-04-30T15:03:53.549Z,3.05
2023-04-30T15:08:56.372Z,3.75
2023-04-30T15:13:59.082Z,3.50
2023-04-30T15:19:01.752Z,4.40
2023-04-30T15:24:04.776Z,5.75
2023-04-30T15:29:08.895Z,3.80
2023-04-30T15:34:12.062Z,2.75
2023-04-30T15:39:14.942Z,2.40
2023-04-30T15:44:17.688Z,2.75
2023-04-30T15:49:23.278Z,2.70
2023-04-30T15:54:26.055Z,2.83
2023-04-30T15:59:28.700Z,2.92
2023-04-30T16:04:31.396Z,2.72
2023-04-30T16:09:34.814Z,2.90
2023-04-30T16:14:37.457Z,3.53
2023-04-30T16:19:41.128Z,5.38
2023-04-30T16:24:43.832Z,4.30
2023-04-30T16:29:46.585Z,7.15
2023-04-30T16:34:49.271Z,10.07
2023-04-30T16:39:51.978Z,6.93
2023-04-30T16:44:54.913Z,4.35
2023-04-30T16:49:58.655Z,4.22
2023-04-30T16:55:01.557Z,4.70
2023-04-30T17:00:06.666Z,4.18
2023-04-30T17:05:10.975Z,5.22
2023-04-30T17:10:14.785Z,5.55
2023-04-30T17:15:19.057Z,4.18
2023-04-30T17:20:21.868Z,4.68
2023-04-30T17:25:24.673Z,5.00
2023-04-30T17:30:28.818Z,5.50
2023-04-30T17:35:31.749Z,5.15
2023-04-30T17:40:34.825Z,4.88
2023-04-30T17:45:37.611Z,5.35
2023-04-30T17:50:40.746Z,5.68
2023-04-30T17:55:44.010Z,4.43
2023-04-30T18:00:46.917Z,4.85
2023-04-30T18:05:49.646Z,5.15
2023-04-30T18:10:53.758Z,5.57
2023-04-30T18:15:56.737Z,4.53
2023-04-30T18:21:00.669Z,5.57
2023-04-30T18:26:03.453Z,5.05
2023-04-30T18:31:06.264Z,4.57
2023-04-30T18:36:09.155Z,5.43
2023-04-30T18:41:12.153Z,5.35
2023-04-30T18:46:15.241Z,5.10
2023-04-30T18:51:23.182Z,4.57
2023-04-30T18:56:26.153Z,5.55
2023-04-30T19:01:28.838Z,6.18
2023-04-30T19:06:33.585Z,5.80
2023-04-30T19:11:36.652Z,6.60
2023-04-30T19:16:39.446Z,5.80
2023-04-30T19:21:42.354Z,4.68
2023-04-30T19:26:45.118Z,5.90
2023-04-30T19:31:59.619Z,5.75
2023-04-30T19:37:03.760Z,5.55
2023-04-30T19:42:10.421Z,6.60
2023-04-30T19:47:13.086Z,6.85
2023-04-30T19:52:16.241Z,6.60
2023-04-30T19:57:18.957Z,7.93
2023-04-30T20:02:21.670Z,7.15
2023-04-30T20:07:25.172Z,6.72
2023-04-30T20:12:28.337Z,8.18
2023-04-30T20:17:33.908Z,9.30
2023-04-30T20:22:36.724Z,8.40
2023-04-30T20:27:40.157Z,7.72
2023-04-30T20:32:43.077Z,7.85
2023-04-30T20:37:49.049Z,9.20
2023-04-30T20:42:52.522Z,9.60
2023-04-30T20:47:56.177Z,9.13
2023-04-30T20:52:59.038Z,9.18
2023-04-30T20:58:01.903Z,8.02
2023-04-30T21:03:04.758Z,8.98
2023-04-30T21:08:07.597Z,8.25
2023-04-30T21:13:11.510Z,7.88
2023-04-30T21:18:14.254Z,7.00
2023-04-30T21:23:17.019Z,8.25
2023-04-30T21:28:19.889Z,8.93
2023-04-30T21:33:22.483Z,9.48
2023-04-30T21:38:25.180Z,8.18
2023-04-30T21:43:27.938Z,7.57
2023-04-30T21:48:30.593Z,9.07
2023-04-30T21:53:33.390Z,8.32
2023-04-30T21:58:36.533Z,8.77
2023-04-30T22:03:39.613Z,8.38
2023-04-30T22:08:42.593Z,9.65
2023-04-30T22:13:45.693Z,8.30
2023-04-30T22:18:48.368Z,7.78
2023-04-30T22:23:51.128Z,7.47
2023-04-30T22:28:53.673Z,7.97
2023-04-30T22:33:56.371Z,8.13
2023-04-30T22:38:59.464Z,7.90
2023-04-30T22:44:02.241Z,7.05
2023-04-30T22:49:05.036Z,6.60
2023-04-30T22:54:09.582Z,7.28
2023-04-30T22:59:12.285Z,7.25
2023-04-30T23:04:15.147Z,7.22
2023-04-30T23:09:17.760Z,7.00
2023-04-30T23:14:20.410Z,7.60
2023-04-30T23:19:23.150Z,8.35
2023-04-30T23:24:26.398Z,8.55
2023-04-30T23:29:29.134Z,8.60
2023-04-30T23:34:32.003Z,9.07
2023-04-30T23:39:34.790Z,9.55
2023-04-30T23:44:37.451Z,8.55
2023-04-30T23:49:40.229Z,8.93
2023-04-30T23:54:42.792Z,8.10
2023-04-30T23:59:45.655Z,7.57
